Ojai, California
Current Conditions -  °F | °C
As of 9:51 PM on Friday 28 Nov 2014 (Local Time) from KOXR Reporting Station
Clear Clear  
Wind Chill: 14°   Ceiling: Unl
Heat Index: 14°   Visibility: 10mi
Dew Point:   Wind: 5mph
Humidity: 53%   Direction: 70°ENE
Pressure: 29.89"   Gusts: NA
Location:  34.44°N, 119.24°W
Report Text: KOXR 290551Z AUTO 07004KT 10SM CLR 14/04 A2989 RMK AO2 SLP121 T01390044 10200 20139 50001
Loading
Personal Weather Stations






























Interactive Weather Map New forecast layout! Learn more

10-Day Weather Forecast

Advertisements
Track Severe Weather on mobile